sensor_id;sensor_type;location;lat;lon;timestamp;temperature;humidity
20422;DHT22;10370;53.102;18.034;2023-11-18T00:01:08;2.60;99.90
20422;DHT22;10370;53.102;18.034;2023-11-18T00:06:31;2.60;99.90
20422;DHT22;10370;53.102;18.034;2023-11-18T00:11:54;2.50;99.90
20422;DHT22;10370;53.102;18.034;2023-11-18T00:17:16;2.50;99.90
20422;DHT22;10370;53.102;18.034;2023-11-18T00:22:40;2.50;99.90
20422;DHT22;10370;53.102;18.034;2023-11-18T00:28:04;2.40;99.90
20422;DHT22;10370;53.102;18.034;2023-11-18T00:33:29;2.40;99.90
20422;DHT22;10370;53.102;18.034;2023-11-18T00:38:51;2.30;99.90
20422;DHT22;10370;53.102;18.034;2023-11-18T00:44:14;2.30;99.90
20422;DHT22;10370;53.102;18.034;2023-11-18T00:49:46;2.30;99.90
20422;DHT22;10370;53.102;18.034;2023-11-18T00:55:09;2.30;99.90
20422;DHT22;10370;53.102;18.034;2023-11-18T01:00:33;2.30;99.90
20422;DHT22;10370;53.102;18.034;2023-11-18T01:05:56;2.30;99.90
20422;DHT22;10370;53.102;18.034;2023-11-18T01:11:19;2.20;99.90
20422;DHT22;10370;53.102;18.034;2023-11-18T01:16:41;2.00;99.90
20422;DHT22;10370;53.102;18.034;2023-11-18T01:22:05;1.90;99.90
20422;DHT22;10370;53.102;18.034;2023-11-18T01:27:28;1.80;99.90
20422;DHT22;10370;53.102;18.034;2023-11-18T01:32:50;1.80;99.90
20422;DHT22;10370;53.102;18.034;2023-11-18T01:38:13;1.80;99.90
20422;DHT22;10370;53.102;18.034;2023-11-18T01:43:39;1.70;99.90
20422;DHT22;10370;53.102;18.034;2023-11-18T01:49:03;1.70;99.90
20422;DHT22;10370;53.102;18.034;2023-11-18T01:54:28;1.80;99.90
20422;DHT22;10370;53.102;18.034;2023-11-18T01:59:51;1.70;99.90
20422;DHT22;10370;53.102;18.034;2023-11-18T02:05:36;1.60;99.90
20422;DHT22;10370;53.102;18.034;2023-11-18T02:11:05;1.60;99.90
20422;DHT22;10370;53.102;18.034;2023-11-18T02:16:34;1.60;99.90
20422;DHT22;10370;53.102;18.034;2023-11-18T02:21:58;1.60;99.90
20422;DHT22;10370;53.102;18.034;2023-11-18T02:27:22;1.60;99.90
20422;DHT22;10370;53.102;18.034;2023-11-18T02:38:20;1.60;99.90
20422;DHT22;10370;53.102;18.034;2023-11-18T02:43:45;1.60;99.90
20422;DHT22;10370;53.102;18.034;2023-11-18T02:49:10;1.70;99.90
20422;DHT22;10370;53.102;18.034;2023-11-18T02:54:32;1.80;99.90
20422;DHT22;10370;53.102;18.034;2023-11-18T02:59:55;1.70;99.90
20422;DHT22;10370;53.102;18.034;2023-11-18T03:05:18;1.70;99.90
20422;DHT22;10370;53.102;18.034;2023-11-18T03:10:41;1.80;99.90
20422;DHT22;10370;53.102;18.034;2023-11-18T03:16:07;1.80;99.90
20422;DHT22;10370;53.102;18.034;2023-11-18T03:21:33;1.80;99.90
20422;DHT22;10370;53.102;18.034;2023-11-18T03:26:56;1.80;99.90
20422;DHT22;10370;53.102;18.034;2023-11-18T03:32:18;1.80;99.90
20422;DHT22;10370;53.102;18.034;2023-11-18T03:37:41;1.80;99.90
20422;DHT22;10370;53.102;18.034;2023-11-18T03:43:04;1.80;99.90
20422;DHT22;10370;53.102;18.034;2023-11-18T03:48:27;1.80;99.90
20422;DHT22;10370;53.102;18.034;2023-11-18T03:59:51;1.80;99.90
20422;DHT22;10370;53.102;18.034;2023-11-18T04:05:14;1.80;99.90
20422;DHT22;10370;53.102;18.034;2023-11-18T04:10:37;1.90;99.90
20422;DHT22;10370;53.102;18.034;2023-11-18T04:15:59;1.90;99.90
20422;DHT22;10370;53.102;18.034;2023-11-18T04:21:22;1.90;99.90
20422;DHT22;10370;53.102;18.034;2023-11-18T04:26:48;1.80;99.90
20422;DHT22;10370;53.102;18.034;2023-11-18T04:32:25;1.90;99.90
20422;DHT22;10370;53.102;18.034;2023-11-18T04:37:49;1.90;99.90
20422;DHT22;10370;53.102;18.034;2023-11-18T04:43:12;1.90;99.90
20422;DHT22;10370;53.102;18.034;2023-11-18T04:48:35;1.90;99.90
20422;DHT22;10370;53.102;18.034;2023-11-18T04:54:00;1.90;99.90
20422;DHT22;10370;53.102;18.034;2023-11-18T04:59:25;1.90;99.90
20422;DHT22;10370;53.102;18.034;2023-11-18T05:04:48;1.90;99.90
20422;DHT22;10370;53.102;18.034;2023-11-18T05:10:11;1.90;99.90
20422;DHT22;10370;53.102;18.034;2023-11-18T05:15:34;1.90;99.90
20422;DHT22;10370;53.102;18.034;2023-11-18T05:20:57;1.90;99.90
20422;DHT22;10370;53.102;18.034;2023-11-18T05:26:20;1.90;99.90
20422;DHT22;10370;53.102;18.034;2023-11-18T05:31:56;2.00;99.90
20422;DHT22;10370;53.102;18.034;2023-11-18T05:37:19;2.00;99.90
20422;DHT22;10370;53.102;18.034;2023-11-18T05:42:41;2.00;99.90
20422;DHT22;10370;53.102;18.034;2023-11-18T05:48:06;2.00;99.90
20422;DHT22;10370;53.102;18.034;2023-11-18T05:53:30;2.10;99.90
20422;DHT22;10370;53.102;18.034;2023-11-18T05:58:55;2.10;99.90
20422;DHT22;10370;53.102;18.034;2023-11-18T06:04:18;2.10;99.90
20422;DHT22;10370;53.102;18.034;2023-11-18T06:09:41;2.10;99.90
20422;DHT22;10370;53.102;18.034;2023-11-18T06:15:53;2.10;99.90
20422;DHT22;10370;53.102;18.034;2023-11-18T06:21:33;2.20;99.90
20422;DHT22;10370;53.102;18.034;2023-11-18T06:26:58;2.20;99.90
20422;DHT22;10370;53.102;18.034;2023-11-18T06:38:27;2.10;99.90
20422;DHT22;10370;53.102;18.034;2023-11-18T06:43:52;2.20;99.90
20422;DHT22;10370;53.102;18.034;2023-11-18T06:49:18;2.20;99.90
20422;DHT22;10370;53.102;18.034;2023-11-18T06:54:41;2.20;99.90
20422;DHT22;10370;53.102;18.034;2023-11-18T07:00:05;2.20;99.90
20422;DHT22;10370;53.102;18.034;2023-11-18T07:05:31;2.20;99.90
20422;DHT22;10370;53.102;18.034;2023-11-18T07:10:54;2.20;99.90
20422;DHT22;10370;53.102;18.034;2023-11-18T07:16:19;2.20;99.90
20422;DHT22;10370;53.102;18.034;2023-11-18T07:22:34;2.30;99.90
20422;DHT22;10370;53.102;18.034;2023-11-18T07:27:57;2.30;99.90
20422;DHT22;10370;53.102;18.034;2023-11-18T07:33:20;2.40;99.90
20422;DHT22;10370;53.102;18.034;2023-11-18T07:38:43;2.40;99.90
20422;DHT22;10370;53.102;18.034;2023-11-18T07:44:05;2.50;99.90
20422;DHT22;10370;53.102;18.034;2023-11-18T07:49:28;2.50;99.90
20422;DHT22;10370;53.102;18.034;2023-11-18T07:54:51;2.60;99.90
20422;DHT22;10370;53.102;18.034;2023-11-18T08:00:14;2.70;99.90
20422;DHT22;10370;53.102;18.034;2023-11-18T08:05:46;2.90;99.90
20422;DHT22;10370;53.102;18.034;2023-11-18T08:11:11;3.00;99.90
20422;DHT22;10370;53.102;18.034;2023-11-18T08:16:37;2.90;99.90
20422;DHT22;10370;53.102;18.034;2023-11-18T08:22:00;2.90;99.90
20422;DHT22;10370;53.102;18.034;2023-11-18T08:27:23;3.00;99.90
20422;DHT22;10370;53.102;18.034;2023-11-18T08:33:45;3.20;99.90
20422;DHT22;10370;53.102;18.034;2023-11-18T08:39:08;3.10;99.90
20422;DHT22;10370;53.102;18.034;2023-11-18T08:44:33;3.10;99.90
20422;DHT22;10370;53.102;18.034;2023-11-18T08:49:56;3.10;99.90
20422;DHT22;10370;53.102;18.034;2023-11-18T08:55:19;3.20;99.90
20422;DHT22;10370;53.102;18.034;2023-11-18T09:01:00;3.20;99.90
20422;DHT22;10370;53.102;18.034;2023-11-18T09:13:28;2.90;99.90
20422;DHT22;10370;53.102;18.034;2023-11-18T09:19:26;2.90;99.90
20422;DHT22;10370;53.102;18.034;2023-11-18T09:25:40;2.90;99.90
20422;DHT22;10370;53.102;18.034;2023-11-18T09:31:04;2.90;99.90
20422;DHT22;10370;53.102;18.034;2023-11-18T09:36:26;2.90;99.90
20422;DHT22;10370;53.102;18.034;2023-11-18T09:41:52;2.90;99.90
20422;DHT22;10370;53.102;18.034;2023-11-18T09:47:15;3.10;99.90
20422;DHT22;10370;53.102;18.034;2023-11-18T09:52:54;3.10;99.90
20422;DHT22;10370;53.102;18.034;2023-11-18T09:58:23;3.20;99.90
20422;DHT22;10370;53.102;18.034;2023-11-18T10:03:46;3.30;99.90
20422;DHT22;10370;53.102;18.034;2023-11-18T10:09:11;3.30;99.90
20422;DHT22;10370;53.102;18.034;2023-11-18T10:14:43;3.50;99.90
20422;DHT22;10370;53.102;18.034;2023-11-18T10:20:06;3.60;99.90
20422;DHT22;10370;53.102;18.034;2023-11-18T10:25:49;3.60;99.90
20422;DHT22;10370;53.102;18.034;2023-11-18T10:31:18;3.80;99.90
20422;DHT22;10370;53.102;18.034;2023-11-18T10:36:41;3.80;99.90
20422;DHT22;10370;53.102;18.034;2023-11-18T10:42:06;4.00;99.90
20422;DHT22;10370;53.102;18.034;2023-11-18T10:47:32;4.10;99.90
20422;DHT22;10370;53.102;18.034;2023-11-18T10:53:18;4.20;99.90
20422;DHT22;10370;53.102;18.034;2023-11-18T10:58:41;4.20;99.90
20422;DHT22;10370;53.102;18.034;2023-11-18T11:04:15;4.00;99.90
20422;DHT22;10370;53.102;18.034;2023-11-18T11:09:43;3.80;99.90
20422;DHT22;10370;53.102;18.034;2023-11-18T11:15:12;3.70;99.90
20422;DHT22;10370;53.102;18.034;2023-11-18T11:21:34;3.80;99.90
20422;DHT22;10370;53.102;18.034;2023-11-18T11:32:28;3.70;99.90
20422;DHT22;10370;53.102;18.034;2023-11-18T11:38:01;3.80;99.90
20422;DHT22;10370;53.102;18.034;2023-11-18T11:43:36;3.90;99.90
20422;DHT22;10370;53.102;18.034;2023-11-18T11:49:02;4.00;99.90
20422;DHT22;10370;53.102;18.034;2023-11-18T12:00:35;4.20;99.90
20422;DHT22;10370;53.102;18.034;2023-11-18T12:05:57;4.30;99.90
20422;DHT22;10370;53.102;18.034;2023-11-18T12:11:34;4.30;99.90
20422;DHT22;10370;53.102;18.034;2023-11-18T12:17:10;4.40;99.90
20422;DHT22;10370;53.102;18.034;2023-11-18T12:23:05;4.40;99.90
20422;DHT22;10370;53.102;18.034;2023-11-18T12:28:36;4.40;99.90
20422;DHT22;10370;53.102;18.034;2023-11-18T12:34:08;4.40;99.90
20422;DHT22;10370;53.102;18.034;2023-11-18T12:39:57;4.40;99.90
20422;DHT22;10370;53.102;18.034;2023-11-18T12:51:04;4.20;99.90
20422;DHT22;10370;53.102;18.034;2023-11-18T12:56:32;4.10;99.90
20422;DHT22;10370;53.102;18.034;2023-11-18T13:01:59;4.20;99.90
20422;DHT22;10370;53.102;18.034;2023-11-18T13:07:33;4.30;99.90
20422;DHT22;10370;53.102;18.034;2023-11-18T13:12:55;4.30;99.90
20422;DHT22;10370;53.102;18.034;2023-11-18T13:18:22;4.40;99.90
20422;DHT22;10370;53.102;18.034;2023-11-18T13:23:46;4.40;99.90
20422;DHT22;10370;53.102;18.034;2023-11-18T13:29:13;4.40;99.90
20422;DHT22;10370;53.102;18.034;2023-11-18T13:34:36;4.20;99.90
20422;DHT22;10370;53.102;18.034;2023-11-18T13:40:09;4.20;99.90
20422;DHT22;10370;53.102;18.034;2023-11-18T13:45:40;4.10;99.90
20422;DHT22;10370;53.102;18.034;2023-11-18T13:51:02;4.10;99.90
20422;DHT22;10370;53.102;18.034;2023-11-18T13:56:25;4.00;99.90
20422;DHT22;10370;53.102;18.034;2023-11-18T14:01:52;4.00;99.90
20422;DHT22;10370;53.102;18.034;2023-11-18T14:07:18;3.90;99.90
20422;DHT22;10370;53.102;18.034;2023-11-18T14:13:04;3.80;99.90
20422;DHT22;10370;53.102;18.034;2023-11-18T14:18:38;3.70;99.90
20422;DHT22;10370;53.102;18.034;2023-11-18T14:24:04;3.60;99.90
20422;DHT22;10370;53.102;18.034;2023-11-18T14:29:27;3.50;99.90
20422;DHT22;10370;53.102;18.034;2023-11-18T14:34:56;3.40;99.90
20422;DHT22;10370;53.102;18.034;2023-11-18T14:40:18;3.40;99.90
20422;DHT22;10370;53.102;18.034;2023-11-18T14:45:56;3.40;99.90
20422;DHT22;10370;53.102;18.034;2023-11-18T14:51:21;3.30;99.90
20422;DHT22;10370;53.102;18.034;2023-11-18T14:56:44;3.30;99.90
20422;DHT22;10370;53.102;18.034;2023-11-18T15:02:11;3.20;99.90
20422;DHT22;10370;53.102;18.034;2023-11-18T15:07:43;3.20;99.90
20422;DHT22;10370;53.102;18.034;2023-11-18T15:13:07;3.20;99.90
20422;DHT22;10370;53.102;18.034;2023-11-18T15:18:40;3.10;99.90
20422;DHT22;10370;53.102;18.034;2023-11-18T15:24:04;3.10;99.90
20422;DHT22;10370;53.102;18.034;2023-11-18T15:29:27;3.00;99.90
20422;DHT22;10370;53.102;18.034;2023-11-18T15:34:55;3.00;99.90
20422;DHT22;10370;53.102;18.034;2023-11-18T15:40:28;3.00;99.90
20422;DHT22;10370;53.102;18.034;2023-11-18T15:45:51;2.90;99.90
20422;DHT22;10370;53.102;18.034;2023-11-18T15:51:32;2.90;99.90
20422;DHT22;10370;53.102;18.034;2023-11-18T15:56:54;2.80;99.90
20422;DHT22;10370;53.102;18.034;2023-11-18T16:02:41;2.90;99.90
20422;DHT22;10370;53.102;18.034;2023-11-18T16:08:05;2.90;99.90
20422;DHT22;10370;53.102;18.034;2023-11-18T16:13:30;2.80;99.90
20422;DHT22;10370;53.102;18.034;2023-11-18T16:18:52;2.80;99.90
20422;DHT22;10370;53.102;18.034;2023-11-18T16:24:17;2.70;99.90
20422;DHT22;10370;53.102;18.034;2023-11-18T16:29:39;2.70;99.90
20422;DHT22;10370;53.102;18.034;2023-11-18T16:35:02;2.70;99.90
20422;DHT22;10370;53.102;18.034;2023-11-18T16:40:25;2.70;99.90
20422;DHT22;10370;53.102;18.034;2023-11-18T16:45:48;2.70;99.90
20422;DHT22;10370;53.102;18.034;2023-11-18T16:51:13;2.60;99.90
20422;DHT22;10370;53.102;18.034;2023-11-18T16:56:55;2.60;99.90
20422;DHT22;10370;53.102;18.034;2023-11-18T17:02:31;2.60;99.90
20422;DHT22;10370;53.102;18.034;2023-11-18T17:08:30;2.60;99.90
20422;DHT22;10370;53.102;18.034;2023-11-18T17:13:53;2.50;99.90
20422;DHT22;10370;53.102;18.034;2023-11-18T17:19:55;2.50;99.90
20422;DHT22;10370;53.102;18.034;2023-11-18T17:25:18;2.50;99.90
20422;DHT22;10370;53.102;18.034;2023-11-18T17:30:41;2.60;99.90
20422;DHT22;10370;53.102;18.034;2023-11-18T17:36:04;2.60;99.90
20422;DHT22;10370;53.102;18.034;2023-11-18T17:41:29;2.60;99.90
20422;DHT22;10370;53.102;18.034;2023-11-18T17:46:51;2.60;99.90
20422;DHT22;10370;53.102;18.034;2023-11-18T17:52:14;2.50;99.90
20422;DHT22;10370;53.102;18.034;2023-11-18T17:57:36;2.50;99.90
20422;DHT22;10370;53.102;18.034;2023-11-18T18:03:03;2.50;99.90
20422;DHT22;10370;53.102;18.034;2023-11-18T18:08:29;2.50;99.90
20422;DHT22;10370;53.102;18.034;2023-11-18T18:13:52;2.50;99.90
20422;DHT22;10370;53.102;18.034;2023-11-18T18:19:33;2.60;99.90
20422;DHT22;10370;53.102;18.034;2023-11-18T18:24:55;2.50;99.90
20422;DHT22;10370;53.102;18.034;2023-11-18T18:30:41;2.50;99.90
20422;DHT22;10370;53.102;18.034;2023-11-18T18:36:13;2.50;99.90
20422;DHT22;10370;53.102;18.034;2023-11-18T18:41:35;2.50;99.90
20422;DHT22;10370;53.102;18.034;2023-11-18T18:46:58;2.40;99.90
20422;DHT22;10370;53.102;18.034;2023-11-18T18:52:21;2.40;99.90
20422;DHT22;10370;53.102;18.034;2023-11-18T18:57:43;2.30;99.90
20422;DHT22;10370;53.102;18.034;2023-11-18T19:03:06;2.30;99.90
20422;DHT22;10370;53.102;18.034;2023-11-18T19:08:35;2.30;99.90
20422;DHT22;10370;53.102;18.034;2023-11-18T19:13:58;2.30;99.90
20422;DHT22;10370;53.102;18.034;2023-11-18T19:19:27;2.30;99.90
20422;DHT22;10370;53.102;18.034;2023-11-18T19:24:50;2.30;99.90
20422;DHT22;10370;53.102;18.034;2023-11-18T19:30:26;2.20;99.90
20422;DHT22;10370;53.102;18.034;2023-11-18T19:35:58;2.10;99.90
20422;DHT22;10370;53.102;18.034;2023-11-18T19:41:21;2.20;99.90
20422;DHT22;10370;53.102;18.034;2023-11-18T19:46:51;2.20;99.90
20422;DHT22;10370;53.102;18.034;2023-11-18T19:52:14;2.20;99.90
20422;DHT22;10370;53.102;18.034;2023-11-18T19:57:37;2.20;99.90
20422;DHT22;10370;53.102;18.034;2023-11-18T20:03:00;2.20;99.90
20422;DHT22;10370;53.102;18.034;2023-11-18T20:08:22;2.20;99.90
20422;DHT22;10370;53.102;18.034;2023-11-18T20:13:46;2.20;99.90
20422;DHT22;10370;53.102;18.034;2023-11-18T20:19:11;2.20;99.90
20422;DHT22;10370;53.102;18.034;2023-11-18T20:24:35;2.10;99.90
20422;DHT22;10370;53.102;18.034;2023-11-18T20:29:57;2.10;99.90
20422;DHT22;10370;53.102;18.034;2023-11-18T20:35:20;2.10;99.90
20422;DHT22;10370;53.102;18.034;2023-11-18T20:40:43;2.10;99.90
20422;DHT22;10370;53.102;18.034;2023-11-18T20:46:12;2.00;99.90
20422;DHT22;10370;53.102;18.034;2023-11-18T20:51:59;1.90;99.90
20422;DHT22;10370;53.102;18.034;2023-11-18T20:57:21;1.80;99.90
20422;DHT22;10370;53.102;18.034;2023-11-18T21:03:03;1.80;99.90
20422;DHT22;10370;53.102;18.034;2023-11-18T21:08:28;1.70;99.90
20422;DHT22;10370;53.102;18.034;2023-11-18T21:14:08;1.50;99.90
20422;DHT22;10370;53.102;18.034;2023-11-18T21:19:35;1.40;99.90
20422;DHT22;10370;53.102;18.034;2023-11-18T21:24:58;1.30;99.90
20422;DHT22;10370;53.102;18.034;2023-11-18T21:30:23;1.30;99.90
20422;DHT22;10370;53.102;18.034;2023-11-18T21:35:46;1.30;99.90
20422;DHT22;10370;53.102;18.034;2023-11-18T21:47:30;1.10;99.90
20422;DHT22;10370;53.102;18.034;2023-11-18T21:52:53;1.00;99.90
20422;DHT22;10370;53.102;18.034;2023-11-18T21:58:16;0.90;99.90
20422;DHT22;10370;53.102;18.034;2023-11-18T22:04:02;0.90;99.90
20422;DHT22;10370;53.102;18.034;2023-11-18T22:09:25;0.80;99.90
20422;DHT22;10370;53.102;18.034;2023-11-18T22:14:54;0.70;99.90
20422;DHT22;10370;53.102;18.034;2023-11-18T22:20:29;0.60;99.90
20422;DHT22;10370;53.102;18.034;2023-11-18T22:25:52;0.40;99.90
20422;DHT22;10370;53.102;18.034;2023-11-18T22:31:15;0.50;99.90
20422;DHT22;10370;53.102;18.034;2023-11-18T22:36:38;0.40;99.90
20422;DHT22;10370;53.102;18.034;2023-11-18T22:42:03;0.40;99.90
20422;DHT22;10370;53.102;18.034;2023-11-18T22:47:45;0.40;99.90
20422;DHT22;10370;53.102;18.034;2023-11-18T22:53:08;0.40;99.90
20422;DHT22;10370;53.102;18.034;2023-11-18T22:58:31;0.20;99.90
20422;DHT22;10370;53.102;18.034;2023-11-18T23:03:54;0.20;99.90
20422;DHT22;10370;53.102;18.034;2023-11-18T23:09:24;0.00;99.90
20422;DHT22;10370;53.102;18.034;2023-11-18T23:14:47;0.10;99.90
20422;DHT22;10370;53.102;18.034;2023-11-18T23:20:14;0.00;99.90
20422;DHT22;10370;53.102;18.034;2023-11-18T23:25:43;-0.20;99.90
20422;DHT22;10370;53.102;18.034;2023-11-18T23:31:06;-0.30;99.90
20422;DHT22;10370;53.102;18.034;2023-11-18T23:36:33;-0.30;99.90
20422;DHT22;10370;53.102;18.034;2023-11-18T23:42:15;-0.30;99.90
20422;DHT22;10370;53.102;18.034;2023-11-18T23:47:38;-0.40;99.90
20422;DHT22;10370;53.102;18.034;2023-11-18T23:53:00;-0.40;99.90
20422;DHT22;10370;53.102;18.034;2023-11-18T23:58:24;-0.50;99.90
